Time;durP1;ratioP1;P1;durP2;ratioP2;P2;SDS_P1;SDS_P2;PMS_P1;PMS_P2;Temp;Humidity;BMP_temperature;BMP_pressure;BME280_temperature;BME280_humidity;BME280_pressure;Samples;Min_cycle;Max_cycle;Signal;HPM_P1;HPM_P2
2023/11/29 00:05:43;;;;;;;38.40;17.60;;;;;;;-2.65;100.00;97676.79;272617;1275;23215;-88
2023/11/29 00:12:36;;;;;;;40.00;18.10;;;;;;;-2.61;100.00;97687.73;272428;1270;22316;-88
2023/11/29 00:19:03;;;;;;;41.50;19.10;;;;;;;-2.62;100.00;97698.42;271311;1267;23733;-87
2023/11/29 00:25:38;;;;;;;44.60;20.90;;;;;;;-2.64;100.00;97709.04;265181;1267;10139384;-87
2023/11/29 00:32:43;;;;;;;44.50;20.30;;;;;;;-2.67;100.00;97715.19;272832;1271;22232;-88
2023/11/29 00:39:13;;;;;;;42.40;19.50;;;;;;;-2.69;100.00;97720.23;271416;1267;23980;-87
2023/11/29 00:45:37;;;;;;;42.10;19.90;;;;;;;-2.70;100.00;97733.82;271395;1267;22350;-88
2023/11/29 00:52:04;;;;;;;49.00;21.70;;;;;;;-2.68;100.00;97752.52;274056;1267;22183;-87
2023/11/29 01:05:49;;;;;;;52.40;23.60;;;;;;;-2.70;100.00;97779.10;273663;1258;22210;-87
2023/11/29 01:12:21;;;;;;;45.40;21.40;;;;;;;-2.73;100.00;97780.69;273596;1269;23100;-87
2023/11/29 01:18:23;;;;;;;53.00;22.50;;;;;;;-2.74;100.00;97784.09;271021;1267;22551;-86
2023/11/29 01:25:15;;;;;;;52.40;23.30;;;;;;;-2.75;100.00;97785.94;272843;1267;22254;-87
2023/11/29 01:39:44;;;;;;;57.90;25.00;;;;;;;-2.78;100.00;97792.02;272527;1272;22344;-87
2023/11/29 01:45:46;;;;;;;61.60;26.20;;;;;;;-2.82;100.00;97798.03;272014;1272;22397;-87
2023/11/29 01:51:48;;;;;;;62.80;26.70;;;;;;;-2.85;100.00;97796.00;272876;1272;22447;-87
2023/11/29 01:58:15;;;;;;;66.80;26.30;;;;;;;-2.84;100.00;97801.30;272855;1272;22389;-87
2023/11/29 02:04:16;;;;;;;;;;;;;;;-2.85;100.00;97807.00;273437;1267;22456;-87
2023/11/29 02:10:42;;;;;;;59.90;24.80;;;;;;;-2.83;100.00;97812.14;273047;1267;22333;-86
2023/11/29 02:17:09;;;;;;;66.70;27.90;;;;;;;-2.83;100.00;97819.36;272584;1259;22329;-87
2023/11/29 02:23:15;;;;;;;68.70;27.90;;;;;;;-2.85;100.00;97826.54;272528;1267;22527;-86
2023/11/29 02:36:46;;;;;;;71.70;31.60;;;;;;;-2.94;100.00;97826.27;271099;1261;22548;-88
2023/11/29 02:42:52;;;;;;;67.90;32.60;;;;;;;-3.00;100.00;97829.66;270569;1267;22587;-89
2023/11/29 02:48:55;;;;;;;70.30;30.80;;;;;;;-3.07;100.00;97834.73;270345;1267;22589;-90
2023/11/29 02:54:58;;;;;;;80.90;35.40;;;;;;;-3.07;100.00;97836.72;270827;1267;23848;-89
2023/11/29 03:01:03;;;;;;;79.20;35.00;;;;;;;-3.08;100.00;97853.11;270431;1267;22556;-87
2023/11/29 03:07:06;;;;;;;59.80;26.20;;;;;;;-3.10;100.00;97863.33;270340;1267;23730;-87
2023/11/29 03:13:08;;;;;;;81.20;35.40;;;;;;;-3.16;100.00;97862.84;270379;1252;22719;-88
2023/11/29 03:19:10;;;;;;;71.40;32.20;;;;;;;-3.21;100.00;97864.55;270758;1267;22572;-91
2023/11/29 03:25:13;;;;;;;71.10;30.10;;;;;;;-3.26;100.00;97865.23;270864;1269;23614;-88
2023/11/29 03:31:15;;;;;;;64.00;30.50;;;;;;;-3.31;100.00;97878.39;271243;1256;22563;-88
2023/11/29 03:37:17;;;;;;;72.10;29.80;;;;;;;-3.35;100.00;97883.00;270968;1267;22589;-91
2023/11/29 03:43:18;;;;;;;73.90;30.90;;;;;;;-3.37;100.00;97884.18;270596;1267;22709;-88
2023/11/29 03:49:25;;;;;;;62.80;29.10;;;;;;;-3.40;100.00;97896.73;270384;1266;22505;-88
2023/11/29 03:55:35;;;;;;;69.50;28.20;;;;;;;-3.42;100.00;97908.66;270794;1266;22510;-87
2023/11/29 04:01:37;;;;;;;66.20;28.10;;;;;;;-3.46;100.00;97905.34;270205;1266;24285;-89
2023/11/29 04:07:45;;;;;;;66.70;29.20;;;;;;;-3.49;100.00;97906.73;270496;1266;23347;-88
2023/11/29 04:13:48;;;;;;;70.00;28.20;;;;;;;-3.50;100.00;97924.38;270428;1267;22553;-88
2023/11/29 04:20:01;;;;;;;72.90;30.70;;;;;;;-3.54;100.00;97938.59;270469;1267;22530;-88
2023/11/29 04:26:03;;;;;;;69.40;29.90;;;;;;;-3.57;100.00;97939.17;270608;1267;23657;-86
2023/11/29 04:32:26;;;;;;;67.00;29.30;;;;;;;-3.63;100.00;97936.07;270794;1267;22539;-88
2023/11/29 04:38:30;;;;;;;73.10;30.90;;;;;;;-3.73;100.00;97949.17;270561;1267;22554;-87
2023/11/29 04:44:35;;;;;;;74.50;32.50;;;;;;;-3.80;100.00;97964.11;270457;1266;22308;-88
2023/11/29 04:50:38;;;;;;;67.20;32.30;;;;;;;-3.82;100.00;97969.20;270075;1267;22541;-87
2023/11/29 04:56:42;;;;;;;83.00;33.10;;;;;;;-3.83;100.00;97974.80;270512;1267;22560;-88
2023/11/29 05:02:46;;;;;;;76.60;34.10;;;;;;;-3.85;100.00;97979.55;270587;1266;22550;-89
2023/11/29 05:08:50;;;;;;;80.30;33.70;;;;;;;-3.85;100.00;97975.80;270630;1266;22558;-88
2023/11/29 05:14:58;;;;;;;84.00;35.40;;;;;;;-3.84;100.00;97974.98;270528;1267;22604;-87
2023/11/29 05:21:00;;;;;;;86.30;36.60;;;;;;;-3.83;100.00;97983.23;270097;1267;22551;-90
2023/11/29 05:27:03;;;;;;;85.60;34.80;;;;;;;-3.82;100.00;97981.71;270701;1267;22565;-88
2023/11/29 05:33:07;;;;;;;90.00;34.00;;;;;;;-3.85;100.00;97992.27;270556;1267;22590;-86
2023/11/29 05:39:10;;;;;;;76.30;33.00;;;;;;;-3.89;100.00;98011.91;270330;1266;22527;-88
2023/11/29 05:45:14;;;;;;;70.80;30.90;;;;;;;-3.94;100.00;98026.13;270480;1267;22560;-88
2023/11/29 05:51:16;;;;;;;76.40;31.00;;;;;;;-3.96;100.00;98033.94;270700;1267;25372;-88
2023/11/29 05:57:19;;;;;;;71.90;29.30;;;;;;;-3.99;100.00;98040.27;270421;1266;22584;-88
2023/11/29 06:03:22;;;;;;;72.90;29.70;;;;;;;-4.05;100.00;98048.70;270458;1266;22550;-89
2023/11/29 06:09:28;;;;;;;67.40;26.80;;;;;;;-4.12;100.00;98050.04;270636;1267;22582;-88
2023/11/29 06:15:32;;;;;;;66.80;29.10;;;;;;;-4.18;100.00;98047.70;270759;1267;22543;-89
2023/11/29 06:21:37;;;;;;;62.80;28.00;;;;;;;-4.20;100.00;98058.88;270827;1259;22550;-90
2023/11/29 06:27:44;;;;;;;59.70;26.50;;;;;;;-4.17;100.00;98074.31;270915;1267;22563;-87
2023/11/29 06:33:46;;;;;;;58.70;25.10;;;;;;;-4.14;100.00;98078.77;270784;1267;22556;-87
2023/11/29 06:39:49;;;;;;;57.40;24.70;;;;;;;-4.14;100.00;98083.17;271008;1266;23432;-88
2023/11/29 06:45:51;;;;;;;58.00;24.80;;;;;;;-4.10;100.00;98087.09;270881;1267;22650;-88
2023/11/29 06:51:53;;;;;;;71.50;29.30;;;;;;;-4.04;100.00;98098.91;270771;1267;22543;-88
2023/11/29 06:57:54;;;;;;;74.30;29.10;;;;;;;-3.99;100.00;98106.51;271022;1269;23283;-88
2023/11/29 07:03:58;;;;;;;63.60;27.40;;;;;;;-3.99;100.00;98110.51;270782;1269;22751;-88
2023/11/29 07:10:00;;;;;;;69.50;27.80;;;;;;;-3.96;100.00;98116.86;270828;1267;22518;-87
2023/11/29 07:16:03;;;;;;;74.50;29.00;;;;;;;-3.91;100.00;98121.23;270668;1269;22657;-88
2023/11/29 07:22:05;;;;;;;63.70;26.70;;;;;;;-3.84;100.00;98116.90;270758;1269;22563;-87
2023/11/29 07:28:08;;;;;;;54.30;24.70;;;;;;;-3.80;100.00;98119.88;270463;1270;22537;-87
2023/11/29 07:34:10;;;;;;;60.10;26.00;;;;;;;-3.75;100.00;98123.50;270556;1267;22300;-88
2023/11/29 07:40:12;;;;;;;60.30;25.50;;;;;;;-3.67;100.00;98129.02;270692;1267;22545;-88
2023/11/29 07:46:24;;;;;;;57.70;24.50;;;;;;;-3.71;100.00;98138.36;270404;1268;22575;-89
2023/11/29 07:52:26;;;;;;;58.00;25.40;;;;;;;-3.68;100.00;98141.61;270977;1267;22536;-89
2023/11/29 07:58:29;;;;;;;57.00;25.70;;;;;;;-3.61;100.00;98144.11;271288;1269;22545;-87
2023/11/29 08:04:31;;;;;;;55.90;24.60;;;;;;;-3.59;100.00;98148.89;271195;1267;22545;-89
2023/11/29 08:10:33;;;;;;;59.10;23.40;;;;;;;-3.54;100.00;98156.33;270786;1267;22657;-87
2023/11/29 08:16:37;;;;;;;52.60;21.40;;;;;;;-3.48;100.00;98165.15;270626;1267;22535;-87
2023/11/29 08:22:40;;;;;;;48.40;20.50;;;;;;;-3.41;100.00;98176.13;270603;1267;22689;-88
2023/11/29 08:28:42;;;;;;;55.60;22.30;;;;;;;-3.42;100.00;98176.26;270663;1267;23179;-88
2023/11/29 08:34:45;;;;;;;52.40;21.20;;;;;;;-3.46;100.00;98178.02;270621;1267;23373;-88
2023/11/29 08:40:47;;;;;;;51.10;21.00;;;;;;;-3.44;100.00;98177.31;270372;1267;22544;-90
2023/11/29 08:47:03;;;;;;;51.70;21.40;;;;;;;-3.43;100.00;98176.92;270500;1267;22553;-89
2023/11/29 08:53:05;;;;;;;50.30;20.90;;;;;;;-3.41;100.00;98175.00;270173;1267;23283;-87
2023/11/29 08:59:08;;;;;;;54.00;23.60;;;;;;;-3.34;100.00;98182.48;270332;1266;24348;-87
2023/11/29 09:05:10;;;;;;;57.90;25.40;;;;;;;-3.24;100.00;98187.23;270144;1267;22557;-88
2023/11/29 09:11:14;;;;;;;52.10;21.60;;;;;;;-3.20;100.00;98185.58;270540;1266;22610;-89
2023/11/29 09:17:17;;;;;;;64.80;25.20;;;;;;;-3.16;100.00;98184.04;273210;1267;22319;-87
2023/11/29 09:23:19;;;;;;;59.70;24.80;;;;;;;-3.05;100.00;98186.80;273226;1267;22424;-87
2023/11/29 09:29:23;;;;;;;60.20;25.10;;;;;;;-2.88;100.00;98185.84;272030;1267;22537;-88
2023/11/29 09:35:25;;;;;;;60.70;26.20;;;;;;;-2.72;100.00;98182.24;270829;1267;22653;-90
2023/11/29 09:41:28;;;;;;;61.70;25.80;;;;;;;-2.57;100.00;98178.31;270751;1267;24237;-88
2023/11/29 09:47:30;;;;;;;65.50;26.70;;;;;;;-2.52;100.00;98171.67;270675;1267;22517;-87
2023/11/29 09:53:32;;;;;;;55.80;25.10;;;;;;;-2.56;100.00;98167.95;271009;1267;22481;-88
2023/11/29 09:59:34;;;;;;;58.30;27.10;;;;;;;-2.48;100.00;98161.29;270823;1267;22636;-88
2023/11/29 10:05:45;;;;;;;69.60;28.70;;;;;;;-2.29;100.00;98159.55;270890;1267;23734;-87
2023/11/29 10:11:48;;;;;;;56.00;25.60;;;;;;;-2.06;100.00;98171.66;270667;1267;23285;-89
2023/11/29 10:18:12;;;;;;;64.70;27.40;;;;;;;-1.83;100.00;98173.42;270526;1266;23352;-87
2023/11/29 10:24:23;;;;;;;57.50;25.90;;;;;;;-1.50;100.00;98164.78;273249;1265;23985;-90
2023/11/29 10:30:25;;;;;;;59.10;25.00;;;;;;;-1.17;100.00;98168.08;273005;1266;22411;-90
2023/11/29 10:36:31;;;;;;;57.70;26.10;;;;;;;-0.85;100.00;98169.09;273200;1267;22440;-88
2023/11/29 10:42:34;;;;;;;63.50;26.30;;;;;;;-0.96;100.00;98162.91;273220;1267;22339;-89
2023/11/29 10:48:37;;;;;;;59.00;24.90;;;;;;;-1.12;100.00;98160.39;273330;1267;25381;-88
2023/11/29 10:54:40;;;;;;;55.60;25.80;;;;;;;-1.28;99.99;98162.23;273123;1251;22487;-88
2023/11/29 11:00:53;;;;;;;55.80;24.00;;;;;;;-1.43;99.99;98160.67;272979;1267;22646;-89
2023/11/29 11:07:02;;;;;;;58.10;25.60;;;;;;;-1.43;99.99;98159.77;273293;1264;22349;-88
2023/11/29 11:13:33;;;;;;;54.30;24.70;;;;;;;-1.28;100.00;98159.75;273307;1267;22489;-89
2023/11/29 11:19:38;;;;;;;58.60;25.90;;;;;;;-1.30;99.65;98159.47;273302;1267;22967;-90
2023/11/29 11:25:44;;;;;;;58.20;26.20;;;;;;;-1.46;99.22;98159.41;273273;1267;22234;-87
2023/11/29 11:31:46;;;;;;;43.40;18.80;;;;;;;-1.59;99.01;98164.69;273071;1266;22438;-88
2023/11/29 11:38:12;;;;;;;56.60;23.30;;;;;;;-1.73;98.94;98163.14;273122;1267;22586;-88
2023/11/29 11:44:16;;;;;;;60.40;25.60;;;;;;;-1.90;98.89;98163.41;270838;1267;23776;-88
2023/11/29 11:50:19;;;;;;;57.60;25.30;;;;;;;-1.94;99.36;98160.53;270561;1267;22634;-88
2023/11/29 11:56:21;;;;;;;62.10;25.70;;;;;;;-1.87;99.63;98157.52;270141;1266;22541;-88
2023/11/29 12:02:24;;;;;;;55.80;25.20;;;;;;;-1.81;99.55;98156.61;271467;1267;23290;-89
2023/11/29 12:08:26;;;;;;;61.80;27.80;;;;;;;-1.76;99.74;98154.20;273354;1266;22319;-88
2023/11/29 12:14:32;;;;;;;61.60;27.50;;;;;;;-1.71;99.91;98156.35;272290;1266;22728;-89
2023/11/29 12:20:34;;;;;;;58.30;25.00;;;;;;;-1.75;99.07;98152.09;270357;1267;25413;-88
2023/11/29 12:26:36;;;;;;;56.50;26.00;;;;;;;-1.83;99.08;98151.49;270230;1265;221071;-91
2023/11/29 12:32:40;;;;;;;58.00;25.70;;;;;;;-1.83;99.22;98154.17;270176;1267;22334;-87
2023/11/29 12:38:42;;;;;;;53.90;24.20;;;;;;;-1.84;99.22;98151.84;270137;1260;22618;-89
2023/11/29 12:44:49;;;;;;;53.50;24.40;;;;;;;-1.91;98.88;98146.90;270317;1267;22701;-88
2023/11/29 12:50:54;;;;;;;62.20;26.70;;;;;;;-2.04;98.52;98141.11;270115;1262;22654;-88
2023/11/29 12:56:56;;;;;;;56.80;25.70;;;;;;;-2.12;98.47;98135.95;271942;1260;22444;-88
2023/11/29 13:02:58;;;;;;;60.60;26.30;;;;;;;-2.20;98.27;98135.88;273335;1267;22198;-90
2023/11/29 13:09:01;;;;;;;60.60;26.90;;;;;;;-2.32;97.99;98132.94;272954;1267;22214;-88
2023/11/29 13:15:09;;;;;;;59.80;26.30;;;;;;;-2.33;98.56;98128.59;273374;1266;22205;-89
2023/11/29 13:21:11;;;;;;;58.00;25.10;;;;;;;-2.33;98.25;98134.67;273320;1267;23087;-91
2023/11/29 13:27:16;;;;;;;61.30;27.30;;;;;;;-2.33;98.43;98134.20;273439;1267;22344;-89
2023/11/29 13:33:18;;;;;;;59.90;27.90;;;;;;;-2.36;98.05;98132.63;273247;1266;22424;-90
2023/11/29 13:39:20;;;;;;;64.90;28.00;;;;;;;-2.43;97.98;98136.11;271610;1267;22985;-89
2023/11/29 13:45:22;;;;;;;61.20;28.00;;;;;;;-2.45;98.26;98136.16;270613;1266;22547;-90
2023/11/29 13:51:24;;;;;;;68.20;30.00;;;;;;;-2.56;98.17;98139.25;270478;1266;25717;-87
2023/11/29 13:57:26;;;;;;;73.20;29.60;;;;;;;-2.58;98.26;98143.79;272749;1266;23454;-88
2023/11/29 14:03:28;;;;;;;69.30;30.30;;;;;;;-2.61;98.25;98142.73;270600;1266;22543;-88
2023/11/29 14:16:18;;;;;;;73.90;31.20;;;;;;;-2.77;98.32;98156.67;265404;1305;544844;-84
2023/11/29 14:22:22;;;;;;;74.60;30.40;;;;;;;-2.83;98.14;98161.55;271444;1282;22190;-85
2023/11/29 14:28:47;;;;;;;79.70;33.10;;;;;;;-2.90;98.16;98158.90;267845;1273;5100266;-84
2023/11/29 14:34:50;;;;;;;78.90;34.10;;;;;;;-2.98;98.07;98167.30;271699;1279;22236;-84
2023/11/29 14:40:57;;;;;;;98.40;40.10;;;;;;;-3.09;98.18;98171.17;271739;1278;23138;-84
2023/11/29 14:46:58;;;;;;;96.60;40.20;;;;;;;-3.18;98.23;98175.30;270202;1278;23764;-87
2023/11/29 14:53:00;;;;;;;103.50;43.00;;;;;;;-3.32;98.03;98179.80;271044;1279;23108;-84
2023/11/29 14:59:03;;;;;;;99.70;39.20;;;;;;;-3.42;98.03;98182.04;272444;1275;23609;-85
2023/11/29 15:05:05;;;;;;;95.80;38.70;;;;;;;-3.58;98.02;98184.05;272716;1275;22212;-84
2023/11/29 15:11:22;;;;;;;90.50;38.70;;;;;;;-3.80;97.82;98178.96;272698;1276;22400;-84
2023/11/29 15:17:46;;;;;;;98.30;43.90;;;;;;;-4.04;97.87;98178.70;272270;1275;22200;-85
2023/11/29 15:23:48;;;;;;;91.30;39.70;;;;;;;-4.27;98.10;98178.38;270901;1260;22454;-85
2023/11/29 15:29:57;;;;;;;97.20;39.30;;;;;;;-4.45;98.10;98188.58;272142;1273;23210;-85
2023/11/29 15:36:03;;;;;;;86.00;35.70;;;;;;;-4.57;98.42;98200.56;272165;1275;22384;-84
2023/11/29 15:42:28;;;;;;;74.40;32.60;;;;;;;-4.75;98.11;98201.75;272297;1276;22315;-83
2023/11/29 15:48:40;;;;;;;71.00;30.90;;;;;;;-4.90;98.27;98217.19;272501;1283;22288;-84
2023/11/29 15:54:42;;;;;;;84.30;38.80;;;;;;;-5.03;98.23;98212.39;271062;1274;22539;-84
2023/11/29 16:00:44;;;;;;;88.30;39.50;;;;;;;-5.34;98.17;98209.91;271722;1275;22260;-83
2023/11/29 16:06:46;;;;;;;97.30;42.80;;;;;;;-5.42;98.68;98211.11;272487;1275;23400;-84
2023/11/29 16:12:49;;;;;;;101.90;43.10;;;;;;;-5.43;98.85;98213.05;272565;1275;22216;-84
2023/11/29 16:18:51;;;;;;;109.10;45.90;;;;;;;-5.50;98.83;98217.69;271810;1275;22942;-84
2023/11/29 16:24:53;;;;;;;116.70;48.10;;;;;;;-5.62;98.96;98218.99;271897;1275;23444;-84
2023/11/29 16:30:56;;;;;;;109.80;44.80;;;;;;;-5.78;98.78;98219.77;272303;1274;22327;-84
2023/11/29 16:36:58;;;;;;;115.10;50.50;;;;;;;-5.90;98.73;98216.80;272868;1282;22686;-84
2023/11/29 16:43:21;;;;;;;123.20;48.60;;;;;;;-6.07;98.52;98224.23;272374;1281;22217;-84
2023/11/29 16:49:23;;;;;;;138.40;54.40;;;;;;;-6.28;98.97;98222.79;264749;1275;10001708;-84
2023/11/29 16:55:37;;;;;;;118.40;48.70;;;;;;;-6.29;99.27;98228.92;272641;1275;23188;-84
2023/11/29 17:02:16;;;;;;;144.10;56.70;;;;;;;-6.34;99.46;98238.36;272131;1275;23284;-85
2023/11/29 17:15:24;;;;;;;153.60;57.80;;;;;;;-6.42;99.92;98243.41;272455;1275;23109;-84
2023/11/29 17:21:47;;;;;;;144.70;58.20;;;;;;;-6.44;99.45;98244.61;271921;1275;23814;-85
2023/11/29 17:27:51;;;;;;;135.50;56.70;;;;;;;-6.57;99.28;98243.03;272877;1279;22268;-84
2023/11/29 17:33:54;;;;;;;127.60;51.20;;;;;;;-6.69;99.05;98243.11;272612;1275;22202;-84
2023/11/29 17:39:56;;;;;;;149.40;58.50;;;;;;;-6.84;98.88;98249.80;272707;1279;22359;-84
2023/11/29 17:46:00;;;;;;;141.30;58.80;;;;;;;-6.94;99.03;98236.96;272015;1275;22184;-84
2023/11/29 17:52:02;;;;;;;150.00;62.30;;;;;;;-7.09;98.87;98236.10;272595;1276;22166;-84
2023/11/29 17:58:09;;;;;;;150.60;60.60;;;;;;;-7.23;98.78;98232.96;272636;1279;22264;-84
2023/11/29 18:04:11;;;;;;;171.60;71.70;;;;;;;-7.41;98.44;98234.65;272046;1274;22842;-84
2023/11/29 18:10:15;;;;;;;177.70;74.40;;;;;;;-7.53;98.66;98234.86;272703;1275;22209;-84
2023/11/29 18:16:16;;;;;;;211.00;88.20;;;;;;;-7.71;98.81;98239.55;272467;1275;22254;-84
2023/11/29 18:22:19;;;;;;;159.30;68.00;;;;;;;-7.66;99.27;98235.10;272457;1269;22181;-84
2023/11/29 18:28:21;;;;;;;187.00;74.80;;;;;;;-7.58;99.11;98236.96;272567;1277;22326;-83
2023/11/29 18:34:23;;;;;;;167.00;72.30;;;;;;;-7.49;99.25;98240.34;272074;1268;23574;-83
2023/11/29 18:40:25;;;;;;;165.20;68.20;;;;;;;-7.48;99.08;98240.08;272150;1275;22820;-84
2023/11/29 18:46:47;;;;;;;164.40;67.50;;;;;;;-7.61;98.41;98234.33;272485;1275;23002;-84
2023/11/29 18:52:49;;;;;;;163.20;66.00;;;;;;;-7.70;98.50;98224.45;272839;1272;22229;-84
2023/11/29 18:59:12;;;;;;;146.60;62.50;;;;;;;-7.72;98.64;98229.08;272412;1274;22291;-83
2023/11/29 19:05:33;;;;;;;164.60;62.60;;;;;;;-7.68;98.88;98223.58;272007;1275;22234;-83
2023/11/29 19:11:35;;;;;;;176.80;71.80;;;;;;;-7.64;98.69;98212.66;271963;1275;23281;-84
2023/11/29 19:17:47;;;;;;;152.80;61.60;;;;;;;-7.67;98.39;98214.80;272398;1275;22290;-83
2023/11/29 19:23:50;;;;;;;188.10;73.00;;;;;;;-7.72;98.18;98211.38;272727;1283;22247;-83
2023/11/29 19:29:52;;;;;;;165.00;66.40;;;;;;;-7.76;98.24;98210.29;271962;1273;22407;-83
2023/11/29 19:35:59;;;;;;;172.30;66.40;;;;;;;-7.78;98.38;98205.20;272812;1279;22272;-82
2023/11/29 19:42:03;;;;;;;158.70;63.50;;;;;;;-7.75;98.22;98199.23;272843;1275;22396;-83
2023/11/29 19:48:06;;;;;;;153.10;61.60;;;;;;;-7.72;98.39;98195.27;272120;1275;22491;-82
2023/11/29 19:54:56;;;;;;;158.40;64.10;;;;;;;-7.79;97.79;98201.55;272790;1278;23224;-82
2023/11/29 20:01:38;;;;;;;177.80;69.40;;;;;;;-7.96;97.59;98196.61;272443;1275;22188;-82
2023/11/29 20:07:40;;;;;;;138.30;55.90;;;;;;;-8.11;97.61;98191.60;272744;1277;23175;-82
2023/11/29 20:13:46;;;;;;;159.90;61.70;;;;;;;-8.25;97.43;98176.83;272252;1275;23668;-82
2023/11/29 20:19:49;;;;;;;159.10;64.90;;;;;;;-8.27;97.89;98172.86;271795;1275;23799;-83
2023/11/29 20:25:51;;;;;;;183.00;66.90;;;;;;;-8.18;98.28;98169.65;270638;1273;24217;-83
2023/11/29 20:31:53;;;;;;;182.70;70.40;;;;;;;-8.13;98.29;98171.52;271845;1275;22571;-83
2023/11/29 20:37:55;;;;;;;191.80;75.20;;;;;;;-8.15;97.86;98172.38;271669;1272;23412;-83
2023/11/29 20:43:58;;;;;;;231.40;87.40;;;;;;;-8.26;97.46;98169.82;270609;1272;22293;-82
2023/11/29 20:50:04;;;;;;;218.30;85.20;;;;;;;-8.38;97.63;98163.30;272685;1270;22291;-83
2023/11/29 20:56:31;;;;;;;220.30;79.80;;;;;;;-8.42;97.57;98161.40;273041;1275;24148;-80
2023/11/29 21:02:36;;;;;;;217.70;84.50;;;;;;;-8.49;97.58;98166.43;272463;1272;23611;-82
2023/11/29 21:08:38;;;;;;;174.10;62.70;;;;;;;-8.55;97.81;98161.75;272501;1272;22432;-80
2023/11/29 21:14:42;;;;;;;211.20;74.90;;;;;;;-8.68;97.88;98168.59;272627;1272;22379;-81
2023/11/29 21:20:47;;;;;;;220.30;80.60;;;;;;;-8.75;98.11;98170.73;272975;1272;22983;-80
2023/11/29 21:26:48;;;;;;;217.30;79.30;;;;;;;-8.64;98.77;98170.22;272766;1272;22715;-80
2023/11/29 21:33:11;;;;;;;218.90;79.90;;;;;;;-8.49;98.98;98166.98;273031;1274;22191;-80
2023/11/29 21:39:21;;;;;;;231.80;86.10;;;;;;;-8.38;99.13;98165.59;272911;1272;23017;-80
2023/11/29 21:45:23;;;;;;;240.10;86.70;;;;;;;-8.34;99.12;98161.33;272517;1266;23584;-80
2023/11/29 21:51:30;;;;;;;216.90;85.30;;;;;;;-8.32;99.50;98163.75;272307;1272;22566;-81
2023/11/29 21:57:32;;;;;;;208.10;80.50;;;;;;;-8.17;99.86;98162.37;271725;1272;22241;-80
2023/11/29 22:03:34;;;;;;;224.80;83.20;;;;;;;-8.05;99.69;98157.20;271814;1272;22225;-81
2023/11/29 22:09:38;;;;;;;209.80;78.10;;;;;;;-8.04;99.46;98148.33;270486;1272;22566;-80
2023/11/29 22:15:40;;;;;;;194.80;73.60;;;;;;;-7.99;99.69;98139.84;270164;1272;27665;-79
2023/11/29 22:21:41;;;;;;;173.90;68.20;;;;;;;-7.95;99.79;98137.52;272307;1272;22679;-81
2023/11/29 22:27:44;;;;;;;136.40;55.80;;;;;;;-7.89;99.94;98133.06;272487;1272;22254;-80
2023/11/29 22:33:46;;;;;;;151.50;58.00;;;;;;;-7.72;100.00;98135.23;272509;1272;22417;-81
2023/11/29 22:39:47;;;;;;;148.80;57.60;;;;;;;-7.52;100.00;98132.13;272304;1272;24008;-81
2023/11/29 22:45:57;;;;;;;134.10;53.20;;;;;;;-7.36;100.00;98128.91;273065;1272;22212;-80
2023/11/29 22:51:59;;;;;;;133.80;52.70;;;;;;;-7.28;100.00;98129.79;272785;1272;23341;-80
2023/11/29 22:58:03;;;;;;;123.00;49.00;;;;;;;-7.15;100.00;98139.02;272444;1272;22555;-82
2023/11/29 23:04:32;;;;;;;118.10;47.80;;;;;;;-7.00;100.00;98140.92;273152;1272;23533;-80
2023/11/29 23:10:34;;;;;;;123.80;48.00;;;;;;;-6.87;100.00;98139.63;272867;1275;22207;-80
2023/11/29 23:16:36;;;;;;;105.30;41.60;;;;;;;-6.83;100.00;98134.13;272585;1272;22380;-80
2023/11/29 23:22:38;;;;;;;93.70;35.50;;;;;;;-6.78;100.00;98134.84;273195;1272;22198;-80
2023/11/29 23:28:40;;;;;;;73.70;30.90;;;;;;;-6.75;100.00;98140.17;271568;1272;22693;-80
2023/11/29 23:34:42;;;;;;;77.20;27.90;;;;;;;-6.70;100.00;98136.17;270617;1272;22823;-81
2023/11/29 23:40:44;;;;;;;66.80;26.40;;;;;;;-6.70;100.00;98139.95;272239;1272;22559;-80
2023/11/29 23:46:45;;;;;;;69.70;28.30;;;;;;;-6.75;100.00;98139.68;271615;1272;22391;-80
2023/11/29 23:52:47;;;;;;;64.60;24.50;;;;;;;-6.87;100.00;98125.52;271913;1272;22184;-81
2023/11/29 23:58:49;;;;;;;50.70;20.40;;;;;;;-6.89;100.00;98119.59;272438;1272;22438;-81
